»·PEaware :: BAW178 KJFK-EGLL

BAW178 :: KJFK-EGLL

FLIGHT INFORMATION

Flight Status: Arrived
Operator:
British Airways
More flights by this operator :: More flights under this callsign
Pilot: Cullen C. (7783)
Aircraft: BOEING 747-400 (WINGLETS)
(B744)
More flights by this aircraft type
Origin: KJFK Kennedy Intl
United States
Destination: EGLL Heathrow
United Kingdom
More flights between these airports :: More routes between these airports
Route: 4035N07337W BETTE ACK KANNI N79A SUPRY/M083F370 46N050W 48N040W 50N030W 51N020W LIMRI/N0470F370 XETBO EVRIN UL607 NUMPO UP2 BEDEK OCK2F
File this flight plan on PilotEdge
Remarks:
Altitude:
(Current/Filed)
37,000ft
Speed:
(Current/Filed)
478kts
Departed: 21-Jan-18 02:55 PM
Arrived: 21-Jan-18 08:34 PM
Distance/Time
Traveled:
2988nm/5:39
Distance/Time
To Go:
Arrived

Flight Plot

Page will automatically refresh every two minutes.

Flight plan parsing failed; only flown route is shown


Map Options




Map Legend


Flown Route
Filed Route
Departure Airport
Arrival Airport
Navaid (VOR, NDB)
Fix

Horizontal Profiles

Position Reports

Time Latitude Longitude Heading Altitude Ground
Speed
21-Jan-18 14:42 40.650693 -73.783849 122 26ft 0kts
21-Jan-18 14:43 40.650693 -73.783849 122 26ft 0kts
21-Jan-18 14:44 40.650693 -73.783849 122 26ft 0kts
21-Jan-18 14:45 40.650693 -73.783849 122 26ft 0kts
21-Jan-18 14:46 40.650693 -73.783849 122 26ft 0kts
21-Jan-18 14:47 40.650693 -73.783849 122 26ft 0kts
21-Jan-18 14:48 40.650693 -73.783849 122 26ft 0kts
21-Jan-18 14:49 40.650693 -73.783849 122 26ft 0kts
21-Jan-18 14:50 40.650879 -73.784472 81 26ft 2kts
21-Jan-18 14:51 40.650608 -73.784828 14 26ft 0kts
21-Jan-18 14:52 40.650608 -73.784828 14 26ft 0kts
21-Jan-18 14:53 40.650608 -73.784828 14 26ft 0kts
21-Jan-18 14:54 40.651312 -73.784657 17 26ft 8kts
21-Jan-18 14:55 40.652251 -73.782844 119 26ft 10kts
21-Jan-18 14:56 40.652347 -73.779183 29 26ft 14kts
21-Jan-18 14:57 40.653814 -73.778086 31 26ft 0kts
21-Jan-18 14:58 40.651997 -73.774645 123 26ft 22kts
21-Jan-18 14:59 40.648750 -73.767517 103 26ft 14kts
21-Jan-18 15:00 40.648013 -73.765318 209 26ft 0kts
21-Jan-18 15:01 40.630069 -73.779157 206 532ft 176kts
21-Jan-18 15:02 40.595783 -73.735900 101 3880ft 220kts
21-Jan-18 15:03 40.583557 -73.622153 95 6372ft 294kts
21-Jan-18 15:04 40.579262 -73.530804 91 9152ft 311kts
21-Jan-18 15:05 40.575109 -73.408158 91 11138ft 382kts
21-Jan-18 15:06 40.569271 -73.253880 92 13633ft 442kts
21-Jan-18 15:07 40.562269 -73.088789 93 17136ft 465kts
21-Jan-18 15:08 40.582011 -72.918436 69 20233ft 484kts
21-Jan-18 15:09 40.626178 -72.747213 68 22974ft 505kts
21-Jan-18 15:10 40.671331 -72.568784 67 25500ft 523kts
21-Jan-18 15:11 40.718776 -72.383771 67 27685ft 541kts
21-Jan-18 15:12 40.766519 -72.193319 67 29892ft 549kts
21-Jan-18 15:13 40.814091 -72.001720 67 32128ft 548kts
21-Jan-18 15:14 40.861248 -71.810168 67 33933ft 550kts
21-Jan-18 15:15 40.908016 -71.618665 67 35625ft 548kts
21-Jan-18 15:16 40.954574 -71.426432 68 37028ft 547kts
21-Jan-18 15:17 41.000654 -71.234585 68 37236ft 548kts
21-Jan-18 15:18 41.046498 -71.042127 68 37231ft 549kts
21-Jan-18 15:19 41.092227 -70.848536 68 37230ft 550kts
21-Jan-18 15:20 41.137558 -70.654995 68 37229ft 550kts
21-Jan-18 15:21 41.182821 -70.460073 68 37233ft 552kts
21-Jan-18 15:22 41.227962 -70.265471 68 37237ft 553kts
21-Jan-18 15:23 41.272327 -70.069843 67 37239ft 554kts
21-Jan-18 15:24 41.343930 -69.891295 50 37241ft 542kts
21-Jan-18 15:25 41.423775 -69.721518 50 37244ft 541kts
21-Jan-18 15:26 41.503408 -69.550545 50 37245ft 542kts
21-Jan-18 15:27 41.582589 -69.379363 51 37246ft 543kts
21-Jan-18 15:28 41.661328 -69.207498 51 37245ft 543kts
21-Jan-18 15:29 41.740093 -69.034519 51 37241ft 543kts
21-Jan-18 15:30 41.818440 -68.861452 51 37240ft 544kts
21-Jan-18 15:31 41.896955 -68.687019 51 37239ft 546kts
21-Jan-18 15:32 41.975209 -68.512137 51 37238ft 548kts
21-Jan-18 15:33 42.053483 -68.336186 50 37235ft 551kts
21-Jan-18 15:34 42.132084 -68.158457 51 37229ft 550kts
21-Jan-18 15:35 42.210000 -67.981217 51 37225ft 550kts
21-Jan-18 15:36 42.288034 -67.802634 51 37221ft 551kts
21-Jan-18 15:37 42.378506 -67.594239 51 37214ft 551kts
21-Jan-18 15:38 42.442951 -67.444891 51 37211ft 553kts
21-Jan-18 15:39 42.520891 -67.264248 51 37207ft 555kts
21-Jan-18 15:40 42.597966 -67.082719 51 37203ft 557kts
21-Jan-18 15:41 42.664065 -66.890388 63 37201ft 569kts
21-Jan-18 15:42 42.716202 -66.686468 63 37197ft 573kts
21-Jan-18 15:43 42.769796 -66.482770 62 37194ft 572kts
21-Jan-18 15:44 42.823765 -66.278396 63 37192ft 572kts
21-Jan-18 15:45 42.876872 -66.073906 63 37190ft 574kts
21-Jan-18 15:46 42.929895 -65.867770 63 37182ft 576kts
21-Jan-18 15:47 42.982593 -65.661081 63 37181ft 578kts
21-Jan-18 15:48 43.034990 -65.453756 63 37181ft 579kts
21-Jan-18 15:49 43.087362 -65.244676 63 37180ft 580kts
21-Jan-18 15:50 43.139203 -65.035843 64 37180ft 581kts
21-Jan-18 15:51 43.190994 -64.825305 64 37125ft 584kts
21-Jan-18 15:52 43.242420 -64.614320 64 37095ft 584kts
21-Jan-18 15:53 43.293515 -64.402707 64 37076ft 586kts
21-Jan-18 15:54 43.344558 -64.189367 64 37027ft 587kts
21-Jan-18 15:55 43.395108 -63.976090 64 37015ft 589kts
21-Jan-18 15:56 43.445632 -63.760837 64 37007ft 590kts
21-Jan-18 15:57 43.495547 -63.546132 65 36998ft 591kts
21-Jan-18 15:58 43.545174 -63.330541 65 36954ft 590kts
21-Jan-18 15:59 43.594516 -63.114080 65 36953ft 590kts
21-Jan-18 16:00 43.643347 -62.897719 65 36950ft 592kts
21-Jan-18 16:01 43.691836 -62.680707 66 36952ft 592kts
21-Jan-18 16:02 43.740116 -62.462425 65 36955ft 593kts
21-Jan-18 16:03 43.787880 -62.244246 66 36961ft 594kts
21-Jan-18 16:04 43.835473 -62.024603 66 36966ft 595kts
21-Jan-18 16:05 43.882596 -61.804824 66 37008ft 595kts
21-Jan-18 16:06 43.929269 -61.584845 66 37035ft 595kts
21-Jan-18 16:07 43.975646 -61.363905 67 37049ft 595kts
21-Jan-18 16:08 44.021463 -61.143275 67 37078ft 595kts
21-Jan-18 16:09 44.066964 -60.921774 67 37080ft 594kts
21-Jan-18 16:10 44.111865 -60.700775 67 37082ft 595kts
21-Jan-18 16:11 44.156496 -60.478638 68 37085ft 597kts
21-Jan-18 16:12 44.200930 -60.254986 68 37087ft 598kts
21-Jan-18 16:13 44.244874 -60.031290 68 37086ft 599kts
21-Jan-18 16:14 44.288525 -59.806513 68 37085ft 599kts
21-Jan-18 16:15 44.331550 -59.582357 68 37081ft 598kts
21-Jan-18 16:16 44.374053 -59.358330 69 37077ft 596kts
21-Jan-18 16:17 44.416158 -59.133776 69 37071ft 596kts
21-Jan-18 16:18 44.457722 -58.909404 69 37064ft 596kts
21-Jan-18 16:19 44.498961 -58.684128 70 37057ft 597kts
21-Jan-18 16:20 44.539708 -58.458750 70 37049ft 598kts
21-Jan-18 16:21 44.580121 -58.232458 70 37041ft 599kts
21-Jan-18 16:22 44.620201 -58.005218 71 37033ft 599kts
21-Jan-18 16:23 44.659729 -57.778247 71 37025ft 599kts
21-Jan-18 16:24 44.698853 -57.550688 71 37017ft 597kts
21-Jan-18 16:25 44.737338 -57.323950 72 37018ft 596kts
21-Jan-18 16:26 44.775286 -57.097401 72 37010ft 595kts
21-Jan-18 16:27 44.812902 -56.869891 72 37002ft 595kts
21-Jan-18 16:28 44.849929 -56.642887 73 36994ft 595kts
21-Jan-18 16:29 44.886579 -56.415154 73 36987ft 595kts
21-Jan-18 16:30 44.922693 -56.187697 73 36980ft 595kts
21-Jan-18 16:31 44.958339 -55.960015 74 36892ft 595kts
21-Jan-18 16:32 44.993616 -55.731433 74 36885ft 594kts
21-Jan-18 16:33 45.028315 -55.503490 74 36874ft 593kts
21-Jan-18 16:34 45.062618 -55.274859 74 36864ft 593kts
21-Jan-18 16:35 45.096358 -55.046662 75 36855ft 593kts
21-Jan-18 16:36 45.129644 -54.818193 75 36845ft 593kts
21-Jan-18 16:37 45.162567 -54.588836 75 36834ft 592kts
21-Jan-18 16:38 45.194884 -54.360208 76 36822ft 592kts
21-Jan-18 16:39 45.226760 -54.131237 76 36810ft 590kts
21-Jan-18 16:40 45.258042 -53.903044 76 36798ft 590kts
21-Jan-18 16:41 45.288872 -53.674512 77 36786ft 590kts
21-Jan-18 16:42 45.319369 -53.444829 77 36774ft 591kts
21-Jan-18 16:43 45.349346 -53.215363 77 36763ft 591kts
21-Jan-18 16:44 45.378956 -52.984957 78 36752ft 591kts
21-Jan-18 16:45 45.408032 -52.754844 78 36681ft 591kts
21-Jan-18 16:46 45.436623 -52.524706 78 36649ft 591kts
21-Jan-18 16:47 45.465208 -52.294272 79 36650ft 589kts
21-Jan-18 16:48 45.492351 -52.064871 79 36643ft 587kts
21-Jan-18 16:49 45.539314 -51.843351 66 36755ft 585kts
21-Jan-18 16:50 45.596092 -51.625565 67 36753ft 583kts
21-Jan-18 16:51 45.652219 -51.408316 66 36751ft 585kts
21-Jan-18 16:52 45.708047 -51.188812 67 36750ft 586kts
21-Jan-18 16:53 45.763159 -50.969158 67 36749ft 588kts
21-Jan-18 16:54 45.817897 -50.748812 67 36751ft 586kts
21-Jan-18 16:55 45.872269 -50.527833 68 36748ft 586kts
21-Jan-18 16:56 45.926343 -50.307916 68 36749ft 585kts
21-Jan-18 16:57 45.979120 -50.087479 69 36749ft 583kts
21-Jan-18 16:58 46.033113 -49.867176 68 36750ft 583kts
21-Jan-18 16:59 46.087388 -49.647679 68 36753ft 583kts
21-Jan-18 17:00 46.142114 -49.427483 68 36752ft 582kts
21-Jan-18 17:01 46.196383 -49.207821 68 36753ft 582kts
21-Jan-18 17:02 46.249822 -48.987642 69 36754ft 582kts
21-Jan-18 17:03 46.303098 -48.765759 69 36756ft 584kts
21-Jan-18 17:04 46.347104 -48.580778 69 36757ft 584kts
21-Jan-18 17:05 46.408474 -48.320182 69 36759ft 586kts
21-Jan-18 17:06 46.460564 -48.096517 69 36761ft 587kts
21-Jan-18 17:07 46.503710 -47.909515 70 36762ft 587kts
21-Jan-18 17:08 46.555223 -47.684067 70 36764ft 587kts
21-Jan-18 17:09 46.614414 -47.422078 71 36765ft 585kts
21-Jan-18 17:10 46.656402 -47.234240 71 36767ft 584kts
21-Jan-18 17:11 46.706123 -47.009637 71 36769ft 583kts
21-Jan-18 17:12 46.763588 -46.746998 72 36771ft 583kts
21-Jan-18 17:13 46.804364 -46.558608 72 36773ft 583kts
21-Jan-18 17:14 46.852792 -46.332617 72 36775ft 584kts
21-Jan-18 17:15 46.900866 -46.105658 72 36776ft 580kts
21-Jan-18 17:16 46.947656 -45.882533 72 36776ft 574kts
21-Jan-18 17:17 46.994011 -45.658926 72 36778ft 574kts
21-Jan-18 17:18 47.040005 -45.434537 72 36779ft 574kts
21-Jan-18 17:19 47.085427 -45.210441 73 36831ft 574kts
21-Jan-18 17:20 47.130560 -44.985202 73 36835ft 573kts
21-Jan-18 17:21 47.174997 -44.760882 73 36840ft 573kts
21-Jan-18 17:22 47.219047 -44.535919 74 36845ft 573kts
21-Jan-18 17:23 47.262721 -44.310245 74 36839ft 572kts
21-Jan-18 17:24 47.305761 -44.085196 74 36843ft 571kts
21-Jan-18 17:25 47.348337 -43.859920 75 36855ft 571kts
21-Jan-18 17:26 47.390616 -43.633482 75 36862ft 572kts
21-Jan-18 17:27 47.432356 -43.407202 75 36866ft 572kts
21-Jan-18 17:28 47.473811 -43.179660 75 36870ft 572kts
21-Jan-18 17:29 47.514712 -42.952354 76 36875ft 572kts
21-Jan-18 17:30 47.555260 -42.724148 76 36879ft 572kts
21-Jan-18 17:31 47.595184 -42.496549 76 36863ft 572kts
21-Jan-18 17:32 47.634612 -42.268877 77 36866ft 570kts
21-Jan-18 17:33 47.673634 -42.040619 77 36869ft 569kts
21-Jan-18 17:34 47.712048 -41.812911 77 36873ft 569kts
21-Jan-18 17:35 47.750117 -41.584242 78 36877ft 570kts
21-Jan-18 17:36 47.787764 -41.355059 78 36881ft 572kts
21-Jan-18 17:37 47.824992 -41.125298 78 36884ft 573kts
21-Jan-18 17:38 47.861960 -40.893968 79 36888ft 574kts
21-Jan-18 17:39 47.898375 -40.662855 79 36893ft 574kts
21-Jan-18 17:40 47.934561 -40.431567 79 36897ft 573kts
21-Jan-18 17:41 47.970173 -40.199204 80 36901ft 573kts
21-Jan-18 17:42 48.007319 -39.968619 74 36904ft 573kts
21-Jan-18 17:43 48.063253 -39.744416 71 36909ft 575kts
21-Jan-18 17:44 48.118650 -39.520156 71 36912ft 575kts
21-Jan-18 17:45 48.174841 -39.296366 71 36915ft 575kts
21-Jan-18 17:46 48.230003 -39.070689 72 36919ft 576kts
21-Jan-18 17:47 48.284550 -38.844626 72 36922ft 577kts
21-Jan-18 17:48 48.338922 -38.616862 72 36926ft 580kts
21-Jan-18 17:49 48.392930 -38.388240 73 36930ft 582kts
21-Jan-18 17:50 48.446649 -38.158426 73 36933ft 582kts
21-Jan-18 17:51 48.500093 -37.927339 73 36870ft 583kts
21-Jan-18 17:52 48.552971 -37.696210 74 36804ft 584kts
21-Jan-18 17:53 48.605521 -37.463995 74 36753ft 582kts
21-Jan-18 17:54 48.657318 -37.232587 74 36756ft 582kts
21-Jan-18 17:55 48.708637 -37.000774 74 36761ft 581kts
21-Jan-18 17:56 48.759656 -36.767706 75 36769ft 582kts
21-Jan-18 17:57 48.810127 -36.534541 75 36771ft 583kts
21-Jan-18 17:58 48.860343 -36.299880 75 36771ft 584kts
21-Jan-18 17:59 48.909924 -36.065509 75 36772ft 583kts
21-Jan-18 18:00 48.959035 -35.830644 76 36774ft 583kts
21-Jan-18 18:01 49.007792 -35.594718 76 36775ft 583kts
21-Jan-18 18:02 49.055917 -35.359078 76 36776ft 583kts
21-Jan-18 18:03 49.103717 -35.122225 76 36782ft 582kts
21-Jan-18 18:04 49.150774 -34.886158 76 36778ft 582kts
21-Jan-18 18:05 49.197425 -34.649316 77 36778ft 582kts
21-Jan-18 18:06 49.243642 -34.411716 77 36779ft 581kts
21-Jan-18 18:07 49.289252 -34.174333 78 36781ft 581kts
21-Jan-18 18:08 49.334283 -33.936958 78 36781ft 581kts
21-Jan-18 18:09 49.379007 -33.698219 78 36873ft 581kts
21-Jan-18 18:10 49.423047 -33.460084 78 36922ft 580kts
21-Jan-18 18:11 49.466772 -33.220562 78 36923ft 581kts
21-Jan-18 18:12 49.509919 -32.981069 78 36924ft 582kts
21-Jan-18 18:13 49.552610 -32.740924 78 36924ft 582kts
21-Jan-18 18:14 49.595012 -32.499189 79 36924ft 584kts
21-Jan-18 18:15 49.636803 -32.257647 79 36924ft 584kts
21-Jan-18 18:16 49.678295 -32.014482 79 36924ft 585kts
21-Jan-18 18:17 49.719178 -31.771517 79 36925ft 584kts
21-Jan-18 18:18 49.759411 -31.528967 79 36924ft 583kts
21-Jan-18 18:19 49.799247 -31.285380 79 36925ft 582kts
21-Jan-18 18:20 49.838274 -31.043227 79 36925ft 579kts
21-Jan-18 18:21 49.876825 -30.800542 80 36924ft 578kts
21-Jan-18 18:22 49.914605 -30.559151 79 36923ft 576kts
21-Jan-18 18:23 49.952396 -30.317534 80 36923ft 576kts
21-Jan-18 18:24 49.988846 -30.074574 80 36922ft 576kts
21-Jan-18 18:25 50.024088 -29.832019 81 36926ft 576kts
21-Jan-18 18:26 50.058173 -29.588199 81 36929ft 575kts
21-Jan-18 18:27 50.092702 -29.345731 80 36929ft 574kts
21-Jan-18 18:28 50.126753 -29.103335 81 36928ft 572kts
21-Jan-18 18:29 50.159875 -28.860410 81 36928ft 571kts
21-Jan-18 18:30 50.192263 -28.618532 81 36954ft 570kts
21-Jan-18 18:31 50.224180 -28.376065 81 37086ft 569kts
21-Jan-18 18:32 50.255467 -28.134224 81 37084ft 568kts
21-Jan-18 18:33 50.286212 -27.892391 81 37082ft 567kts
21-Jan-18 18:34 50.316529 -27.649645 82 37081ft 567kts
21-Jan-18 18:35 50.346187 -27.407831 82 37079ft 566kts
21-Jan-18 18:36 50.375402 -27.165231 82 37077ft 565kts
21-Jan-18 18:37 50.403952 -26.923667 82 37090ft 563kts
21-Jan-18 18:38 50.431913 -26.682656 82 37088ft 562kts
21-Jan-18 18:39 50.459378 -26.441288 82 37086ft 561kts
21-Jan-18 18:40 50.486241 -26.200601 82 37085ft 560kts
21-Jan-18 18:41 50.512647 -25.959226 82 37083ft 558kts
21-Jan-18 18:42 50.538396 -25.719128 82 37081ft 558kts
21-Jan-18 18:43 50.563640 -25.478868 83 37071ft 557kts
21-Jan-18 18:44 50.588444 -25.237767 83 37068ft 557kts
21-Jan-18 18:45 50.612635 -24.997595 83 37082ft 556kts
21-Jan-18 18:46 50.636279 -24.757692 83 37083ft 554kts
21-Jan-18 18:47 50.659461 -24.517262 84 37029ft 553kts
21-Jan-18 18:48 50.682042 -24.277710 84 37028ft 552kts
21-Jan-18 18:49 50.704173 -24.037497 84 37028ft 552kts
21-Jan-18 18:50 50.725700 -23.798275 84 37029ft 550kts
21-Jan-18 18:51 50.746771 -23.558466 84 37029ft 550kts
21-Jan-18 18:52 50.767287 -23.319175 84 36994ft 550kts
21-Jan-18 18:53 50.787287 -23.079980 84 36995ft 549kts
21-Jan-18 18:54 50.806850 -22.839989 84 36994ft 549kts
21-Jan-18 18:55 50.825839 -22.600757 84 36997ft 549kts
21-Jan-18 18:56 50.844369 -22.360961 85 36940ft 547kts
21-Jan-18 18:57 50.862343 -22.121854 85 36941ft 548kts
21-Jan-18 18:58 50.879824 -21.882574 84 37005ft 548kts
21-Jan-18 18:59 50.896867 -21.642502 85 37003ft 547kts
21-Jan-18 19:00 50.913362 -21.403007 85 37001ft 547kts
21-Jan-18 19:01 50.929420 -21.162562 85 37000ft 547kts
21-Jan-18 19:02 50.944924 -20.922894 85 36863ft 547kts
21-Jan-18 19:03 50.959916 -20.683448 85 36835ft 546kts
21-Jan-18 19:04 50.974931 -20.443216 85 36833ft 546kts
21-Jan-18 19:05 50.988755 -20.203620 85 36813ft 546kts
21-Jan-18 19:06 51.008427 -19.964493 73 36808ft 546kts
21-Jan-18 19:07 51.057948 -19.737131 68 36805ft 545kts
21-Jan-18 19:08 51.108125 -19.509930 68 36804ft 545kts
21-Jan-18 19:09 51.159119 -19.282555 68 36802ft 544kts
21-Jan-18 19:10 51.208733 -19.055157 68 36801ft 544kts
21-Jan-18 19:11 51.249760 -18.864423 68 36801ft 544kts
21-Jan-18 19:12 51.298324 -18.636204 68 36800ft 543kts
21-Jan-18 19:13 51.354429 -18.369279 69 36800ft 543kts
21-Jan-18 19:14 51.394177 -18.177998 69 36799ft 542kts
21-Jan-18 19:15 51.449091 -17.910656 69 36799ft 542kts
21-Jan-18 19:16 51.495773 -17.680552 69 36801ft 541kts
21-Jan-18 19:17 51.534193 -17.489099 69 36799ft 541kts
21-Jan-18 19:18 51.579816 -17.259287 69 36799ft 541kts
21-Jan-18 19:19 51.625121 -17.028341 69 36799ft 540kts
21-Jan-18 19:20 51.669765 -16.798007 69 36800ft 539kts
21-Jan-18 19:21 51.713958 -16.567234 69 36800ft 537kts
21-Jan-18 19:22 51.757441 -16.337373 69 36800ft 535kts
21-Jan-18 19:23 51.800371 -16.107655 69 36805ft 534kts
21-Jan-18 19:24 51.842922 -15.877087 69 36804ft 534kts
21-Jan-18 19:25 51.884911 -15.646721 70 36804ft 534kts
21-Jan-18 19:26 51.927126 -15.415400 70 36805ft 535kts
21-Jan-18 19:27 51.968015 -15.183497 71 36819ft 536kts
21-Jan-18 19:28 52.000724 -14.948278 84 36828ft 538kts
21-Jan-18 19:29 52.000686 -14.706040 89 36825ft 535kts
21-Jan-18 19:30 52.001001 -14.464774 88 36825ft 535kts
21-Jan-18 19:31 52.001028 -14.223413 90 36838ft 536kts
21-Jan-18 19:32 51.999959 -13.981046 89 36838ft 536kts
21-Jan-18 19:33 51.999739 -13.739446 89 36838ft 536kts
21-Jan-18 19:34 51.998729 -13.496959 90 36837ft 537kts
21-Jan-18 19:35 51.998882 -13.254547 90 36837ft 539kts
21-Jan-18 19:36 51.997978 -13.011691 90 36837ft 539kts
21-Jan-18 19:37 51.996277 -12.767507 91 36837ft 541kts
21-Jan-18 19:38 51.994039 -12.523817 91 36837ft 540kts
21-Jan-18 19:39 51.991290 -12.279641 92 36837ft 540kts
21-Jan-18 19:40 51.988050 -12.036548 92 36837ft 539kts
21-Jan-18 19:41 51.984312 -11.793565 92 36837ft 539kts
21-Jan-18 19:42 51.980059 -11.549682 93 36837ft 541kts
21-Jan-18 19:43 51.975302 -11.305966 93 36837ft 542kts
21-Jan-18 19:44 51.970015 -11.061087 93 36838ft 542kts
21-Jan-18 19:45 51.964228 -10.816599 94 36839ft 544kts
21-Jan-18 19:46 51.957927 -10.571804 94 36839ft 543kts
21-Jan-18 19:47 51.951096 -10.326440 94 36840ft 544kts
21-Jan-18 19:48 51.943780 -10.081884 95 36841ft 544kts
21-Jan-18 19:49 51.935961 -9.837483 95 36842ft 544kts
21-Jan-18 19:50 51.927608 -9.592384 95 36842ft 544kts
21-Jan-18 19:51 51.918763 -9.347806 96 36838ft 545kts
21-Jan-18 19:52 51.909357 -9.101973 96 36832ft 547kts
21-Jan-18 19:53 51.899423 -8.855832 97 36823ft 549kts
21-Jan-18 19:54 51.888965 -8.609532 97 36813ft 549kts
21-Jan-18 19:55 51.877938 -8.362183 97 36816ft 550kts
21-Jan-18 19:56 51.866420 -8.115479 97 36815ft 551kts
21-Jan-18 19:57 51.854380 -7.868777 98 36815ft 550kts
21-Jan-18 19:58 51.841786 -7.621434 98 36815ft 551kts
21-Jan-18 19:59 51.828707 -7.374849 98 36815ft 552kts
21-Jan-18 20:00 51.815035 -7.126918 98 36815ft 553kts
21-Jan-18 20:01 51.801364 -6.879006 99 36810ft 556kts
21-Jan-18 20:02 51.786090 -6.629589 99 36808ft 558kts
21-Jan-18 20:03 51.774298 -6.379492 96 36806ft 561kts
21-Jan-18 20:04 51.763563 -6.127548 97 36818ft 562kts
21-Jan-18 20:05 51.753214 -5.875889 96 36812ft 562kts
21-Jan-18 20:06 51.742527 -5.624343 97 36816ft 562kts
21-Jan-18 20:07 51.730059 -5.372470 97 36823ft 561kts
21-Jan-18 20:08 51.717287 -5.121985 97 36846ft 562kts
21-Jan-18 20:09 51.703678 -4.870358 97 36846ft 562kts
21-Jan-18 20:10 51.690590 -4.619330 97 36849ft 563kts
21-Jan-18 20:11 51.676795 -4.367795 97 36845ft 565kts
21-Jan-18 20:12 51.662600 -4.114814 98 36844ft 566kts
21-Jan-18 20:13 51.646933 -3.863031 98 36835ft 566kts
21-Jan-18 20:14 51.631689 -3.611187 98 36823ft 566kts
21-Jan-18 20:15 51.614987 -3.359001 98 36817ft 565kts
21-Jan-18 20:16 51.587916 -3.112715 106 35394ft 553kts
21-Jan-18 20:17 51.554895 -2.874981 105 33243ft 535kts
21-Jan-18 20:18 51.524253 -2.646667 104 30419ft 513kts
21-Jan-18 20:19 51.495044 -2.428170 104 27483ft 489kts
21-Jan-18 20:20 51.465501 -2.219687 104 24532ft 467kts
21-Jan-18 20:21 51.437603 -2.022037 103 21848ft 442kts
21-Jan-18 20:22 51.411220 -1.835080 104 19256ft 417kts
21-Jan-18 20:23 51.385622 -1.659283 104 16590ft 397kts
21-Jan-18 20:24 51.361144 -1.489936 103 13799ft 384kts
21-Jan-18 20:25 51.336396 -1.324901 103 12083ft 377kts
21-Jan-18 20:26 51.313377 -1.163649 96 10883ft 357kts
21-Jan-18 20:27 51.311820 -1.013724 88 9782ft 325kts
21-Jan-18 20:28 51.310365 -0.870761 89 8737ft 319kts
21-Jan-18 20:29 51.308890 -0.731025 88 7560ft 309kts
21-Jan-18 20:30 51.307260 -0.599389 89 6749ft 283kts
21-Jan-18 20:31 51.308010 -0.475584 67 5585ft 267kts
21-Jan-18 20:32 51.337912 -0.384419 58 4822ft 218kts
21-Jan-18 20:33 51.362896 -0.298903 58 3770ft 206kts
21-Jan-18 20:34 51.396407 -0.236169 26 2769ft 173kts
21-Jan-18 20:35 51.438918 -0.231854 330 2444ft 145kts
21-Jan-18 20:36 51.463036 -0.280026 303 1981ft 139kts
21-Jan-18 20:37 51.478711 -0.335734 272 1292ft 138kts
21-Jan-18 20:38 51.477779 -0.396571 269 564ft 134kts
21-Jan-18 20:39 51.477550 -0.453294 270 96ft 86kts
21-Jan-18 20:40 51.476733 -0.473919 187 96ft 13kts
21-Jan-18 20:41 51.475795 -0.478771 268 96ft 20kts
21-Jan-18 20:42 51.473698 -0.483550 180 96ft 5kts
21-Jan-18 20:43 51.473465 -0.483556 180 96ft 0kts
21-Jan-18 20:44 51.473148 -0.482393 91 96ft 0kts
21-Jan-18 20:45 51.473148 -0.482393 91 96ft 0kts
21-Jan-18 20:46 51.473148 -0.482393 91 96ft 0kts
21-Jan-18 20:47 51.473148 -0.482393 91 96ft 0kts
21-Jan-18 20:48 51.473148 -0.482393 91 96ft 0kts
21-Jan-18 20:49 51.473148 -0.482393 91 96ft 0kts

Navigation Log

Ident Type
Flight plan parsing failed, navigation log unavailable